sensor_id;sensor_type;location;lat;lon;timestamp;pressure;altitude;pressure_sealevel;temperature;humidity
75438;BME280;64015;49.392;15.582;2024-02-15T00:08:31;96220.56;;;7.12;100.00
75438;BME280;64015;49.392;15.582;2024-02-15T00:14:06;96215.84;;;7.14;100.00
75438;BME280;64015;49.392;15.582;2024-02-15T00:16:34;96210.19;;;7.05;100.00
75438;BME280;64015;49.392;15.582;2024-02-15T00:19:00;96214.63;;;7.05;100.00
75438;BME280;64015;49.392;15.582;2024-02-15T00:21:27;96214.09;;;7.03;100.00
75438;BME280;64015;49.392;15.582;2024-02-15T00:24:02;96201.88;;;6.97;100.00
75438;BME280;64015;49.392;15.582;2024-02-15T00:26:31;96192.69;;;6.94;100.00
75438;BME280;64015;49.392;15.582;2024-02-15T00:28:57;96189.94;;;6.89;100.00
75438;BME280;64015;49.392;15.582;2024-02-15T00:31:24;96203.41;;;6.93;100.00
75438;BME280;64015;49.392;15.582;2024-02-15T00:33:50;96203.63;;;6.91;100.00
75438;BME280;64015;49.392;15.582;2024-02-15T00:39:10;96184.63;;;6.84;100.00
75438;BME280;64015;49.392;15.582;2024-02-15T00:41:40;96189.72;;;6.91;100.00
75438;BME280;64015;49.392;15.582;2024-02-15T00:44:09;96206.22;;;7.03;100.00
75438;BME280;64015;49.392;15.582;2024-02-15T00:46:39;96189.91;;;7.01;100.00
75438;BME280;64015;49.392;15.582;2024-02-15T00:49:06;96187.19;;;6.96;100.00
75438;BME280;64015;49.392;15.582;2024-02-15T00:51:48;96212.25;;;7.03;100.00
75438;BME280;64015;49.392;15.582;2024-02-15T00:54:20;96190.84;;;6.95;100.00
75438;BME280;64015;49.392;15.582;2024-02-15T00:56:46;96196.13;;;6.83;100.00
75438;BME280;64015;49.392;15.582;2024-02-15T01:03:00;96210.59;;;6.86;100.00
75438;BME280;64015;49.392;15.582;2024-02-15T01:05:56;96196.94;;;6.72;100.00
75438;BME280;64015;49.392;15.582;2024-02-15T01:12:41;96181.84;;;6.51;100.00
75438;BME280;64015;49.392;15.582;2024-02-15T01:15:08;96193.91;;;6.63;100.00
75438;BME280;64015;49.392;15.582;2024-02-15T01:17:34;96200.81;;;6.69;100.00
75438;BME280;64015;49.392;15.582;2024-02-15T01:20:30;96180.22;;;6.50;100.00
75438;BME280;64015;49.392;15.582;2024-02-15T01:27:07;96179.78;;;6.53;100.00
75438;BME280;64015;49.392;15.582;2024-02-15T01:35:33;96168.88;;;6.44;100.00
75438;BME280;64015;49.392;15.582;2024-02-15T01:47:05;96165.09;;;6.40;100.00
75438;BME280;64015;49.392;15.582;2024-02-15T01:50:20;96175.00;;;6.50;100.00
75438;BME280;64015;49.392;15.582;2024-02-15T01:57:43;96177.72;;;6.66;100.00
75438;BME280;64015;49.392;15.582;2024-02-15T02:00:12;96158.03;;;6.52;100.00
75438;BME280;64015;49.392;15.582;2024-02-15T02:02:41;96163.13;;;6.59;100.00
75438;BME280;64015;49.392;15.582;2024-02-15T02:10:23;96172.94;;;6.63;100.00
75438;BME280;64015;49.392;15.582;2024-02-15T02:16:28;96172.56;;;6.71;100.00
75438;BME280;64015;49.392;15.582;2024-02-15T02:23:28;96146.75;;;6.52;100.00
75438;BME280;64015;49.392;15.582;2024-02-15T02:30:30;96173.81;;;6.69;100.00
75438;BME280;64015;49.392;15.582;2024-02-15T02:33:01;96176.22;;;6.70;100.00
75438;BME280;64015;49.392;15.582;2024-02-15T02:39:42;96155.03;;;6.60;100.00
75438;BME280;64015;49.392;15.582;2024-02-15T02:50:31;96155.25;;;6.59;100.00
75438;BME280;64015;49.392;15.582;2024-02-15T02:53:18;96150.53;;;6.44;100.00
75438;BME280;64015;49.392;15.582;2024-02-15T03:07:20;96158.06;;;6.29;100.00
75438;BME280;64015;49.392;15.582;2024-02-15T03:32:19;96160.00;;;6.22;100.00
75438;BME280;64015;49.392;15.582;2024-02-15T03:34:46;96144.19;;;6.17;100.00
75438;BME280;64015;49.392;15.582;2024-02-15T03:46:15;96164.22;;;6.34;100.00
75438;BME280;64015;49.392;15.582;2024-02-15T03:53:03;96170.69;;;6.32;100.00
75438;BME280;64015;49.392;15.582;2024-02-15T04:00:09;96178.31;;;6.45;100.00
75438;BME280;64015;49.392;15.582;2024-02-15T04:07:29;96192.66;;;6.54;100.00
75438;BME280;64015;49.392;15.582;2024-02-15T04:11:48;96176.38;;;6.52;100.00
75438;BME280;64015;49.392;15.582;2024-02-15T04:14:21;96186.47;;;6.60;100.00
75438;BME280;64015;49.392;15.582;2024-02-15T04:16:47;96173.97;;;6.51;100.00
75438;BME280;64015;49.392;15.582;2024-02-15T04:19:44;96191.72;;;6.60;100.00
75438;BME280;64015;49.392;15.582;2024-02-15T04:25:48;96188.09;;;6.61;100.00
75438;BME280;64015;49.392;15.582;2024-02-15T04:28:49;96188.66;;;6.63;100.00
75438;BME280;64015;49.392;15.582;2024-02-15T04:31:34;96178.63;;;6.60;100.00
75438;BME280;64015;49.392;15.582;2024-02-15T04:35:02;96179.19;;;6.62;100.00
75438;BME280;64015;49.392;15.582;2024-02-15T04:37:35;96167.13;;;6.50;100.00
75438;BME280;64015;49.392;15.582;2024-02-15T04:40:11;96165.44;;;6.55;100.00
75438;BME280;64015;49.392;15.582;2024-02-15T04:42:49;96164.28;;;6.51;100.00
75438;BME280;64015;49.392;15.582;2024-02-15T04:45:40;96187.16;;;6.67;100.00
75438;BME280;64015;49.392;15.582;2024-02-15T04:49:25;96182.38;;;6.64;100.00
75438;BME280;64015;49.392;15.582;2024-02-15T04:56:26;96171.78;;;6.59;100.00
75438;BME280;64015;49.392;15.582;2024-02-15T04:59:19;96167.91;;;6.62;100.00
75438;BME280;64015;49.392;15.582;2024-02-15T05:01:46;96184.53;;;6.67;100.00
75438;BME280;64015;49.392;15.582;2024-02-15T05:08:28;96179.41;;;6.72;100.00
75438;BME280;64015;49.392;15.582;2024-02-15T05:15:19;96185.09;;;6.69;100.00
75438;BME280;64015;49.392;15.582;2024-02-15T05:18:23;96173.00;;;6.68;100.00
75438;BME280;64015;49.392;15.582;2024-02-15T05:28:28;96184.53;;;6.67;100.00
75438;BME280;64015;49.392;15.582;2024-02-15T05:43:05;96179.16;;;6.74;100.00
75438;BME280;64015;49.392;15.582;2024-02-15T05:45:32;96173.81;;;6.69;100.00
75438;BME280;64015;49.392;15.582;2024-02-15T05:48:41;96162.91;;;6.60;100.00
75438;BME280;64015;49.392;15.582;2024-02-15T05:51:42;96181.91;;;6.67;100.00
75438;BME280;64015;49.392;15.582;2024-02-15T05:54:40;96177.13;;;6.64;100.00
75438;BME280;64015;49.392;15.582;2024-02-15T05:57:37;96173.94;;;6.62;100.00
75438;BME280;64015;49.392;15.582;2024-02-15T06:00:03;96180.34;;;6.66;100.00
75438;BME280;64015;49.392;15.582;2024-02-15T06:02:35;96188.09;;;6.61;100.00
75438;BME280;64015;49.392;15.582;2024-02-15T06:08:49;96179.75;;;6.64;100.00
75438;BME280;64015;49.392;15.582;2024-02-15T06:15:16;96200.47;;;6.78;100.00
75438;BME280;64015;49.392;15.582;2024-02-15T06:18:11;96200.47;;;6.78;100.00
75438;BME280;64015;49.392;15.582;2024-02-15T06:21:44;96200.56;;;6.83;100.00
75438;BME280;64015;49.392;15.582;2024-02-15T06:45:39;96200.00;;;6.81;100.00
75438;BME280;64015;49.392;15.582;2024-02-15T06:48:19;96210.25;;;6.94;100.00
75438;BME280;64015;49.392;15.582;2024-02-15T06:50:51;96197.13;;;6.94;100.00
75438;BME280;64015;49.392;15.582;2024-02-15T06:53:39;96217.03;;;7.06;100.00
75438;BME280;64015;49.392;15.582;2024-02-15T06:56:28;96211.56;;;6.96;100.00
75438;BME280;64015;49.392;15.582;2024-02-15T06:59:35;96229.09;;;7.07;100.00
75438;BME280;64015;49.392;15.582;2024-02-15T07:05:33;96203.97;;;6.95;100.00
75438;BME280;64015;49.392;15.582;2024-02-15T07:11:53;96198.63;;;7.18;100.00
75438;BME280;64015;49.392;15.582;2024-02-15T07:18:37;96214.81;;;7.43;100.00
75438;BME280;64015;49.392;15.582;2024-02-15T07:25:15;96208.06;;;7.47;100.00
75438;BME280;64015;49.392;15.582;2024-02-15T07:31:45;96213.00;;;7.61;100.00
75438;BME280;64015;49.392;15.582;2024-02-15T07:34:37;96223.16;;;7.69;100.00
75438;BME280;64015;49.392;15.582;2024-02-15T07:38:21;96230.41;;;7.78;100.00
75438;BME280;64015;49.392;15.582;2024-02-15T07:41:19;96229.03;;;7.76;100.00
75438;BME280;64015;49.392;15.582;2024-02-15T07:43:51;96228.94;;;7.71;100.00
75438;BME280;64015;49.392;15.582;2024-02-15T07:47:30;96241.84;;;7.72;100.00
75438;BME280;64015;49.392;15.582;2024-02-15T07:50:19;96226.41;;;7.59;100.00
75438;BME280;64015;49.392;15.582;2024-02-15T07:52:47;96226.13;;;7.61;100.00
75438;BME280;64015;49.392;15.582;2024-02-15T07:55:19;96222.59;;;7.67;100.00
75438;BME280;64015;49.392;15.582;2024-02-15T07:57:45;96231.16;;;7.79;100.00
75438;BME280;64015;49.392;15.582;2024-02-15T08:00:14;96230.06;;;7.75;100.00
75438;BME280;64015;49.392;15.582;2024-02-15T08:02:49;96213.34;;;7.81;100.00
75438;BME280;64015;49.392;15.582;2024-02-15T08:05:15;96226.56;;;7.86;100.00
75438;BME280;64015;49.392;15.582;2024-02-15T08:07:46;96225.84;;;7.91;100.00
75438;BME280;64015;49.392;15.582;2024-02-15T08:12:54;96216.31;;;8.01;100.00
75438;BME280;64015;49.392;15.582;2024-02-15T08:15:32;96211.25;;;8.16;100.00
75438;BME280;64015;49.392;15.582;2024-02-15T08:18:04;96195.88;;;8.25;100.00
75438;BME280;64015;49.392;15.582;2024-02-15T08:20:37;96201.31;;;8.52;100.00
75438;BME280;64015;49.392;15.582;2024-02-15T08:23:08;96212.84;;;8.51;100.00
75438;BME280;64015;49.392;15.582;2024-02-15T08:25:45;96198.84;;;8.29;100.00
75438;BME280;64015;49.392;15.582;2024-02-15T08:28:11;96217.00;;;8.47;100.00
75438;BME280;64015;49.392;15.582;2024-02-15T08:30:46;96213.53;;;8.63;100.00
75438;BME280;64015;49.392;15.582;2024-02-15T08:33:12;96218.31;;;8.66;100.00
75438;BME280;64015;49.392;15.582;2024-02-15T08:35:38;96213.72;;;8.78;100.00
75438;BME280;64015;49.392;15.582;2024-02-15T08:38:17;96222.66;;;8.77;100.00
75438;BME280;64015;49.392;15.582;2024-02-15T08:40:50;96213.53;;;8.63;100.00
75438;BME280;64015;49.392;15.582;2024-02-15T08:43:20;96213.53;;;8.63;100.00
75438;BME280;64015;49.392;15.582;2024-02-15T08:45:48;96207.84;;;8.71;100.00
75438;BME280;64015;49.392;15.582;2024-02-15T08:48:14;96200.69;;;8.67;100.00
75438;BME280;64015;49.392;15.582;2024-02-15T08:50:52;96200.19;;;8.91;100.00
75438;BME280;64015;49.392;15.582;2024-02-15T08:53:21;96190.19;;;8.88;100.00
75438;BME280;64015;49.392;15.582;2024-02-15T08:55:56;96207.38;;;8.96;100.00
75438;BME280;64015;49.392;15.582;2024-02-15T08:58:47;96222.41;;;9.01;100.00
75438;BME280;64015;49.392;15.582;2024-02-15T09:02:14;96209.69;;;8.92;100.00
75438;BME280;64015;49.392;15.582;2024-02-15T09:08:51;96212.75;;;9.06;100.00
75438;BME280;64015;49.392;15.582;2024-02-15T09:11:17;96196.63;;;9.24;100.00
75438;BME280;64015;49.392;15.582;2024-02-15T09:17:47;96209.84;;;10.20;100.00
75438;BME280;64015;49.392;15.582;2024-02-15T09:20:16;96209.81;;;10.57;100.00
75438;BME280;64015;49.392;15.582;2024-02-15T09:23:13;96199.81;;;9.85;100.00
75438;BME280;64015;49.392;15.582;2024-02-15T09:32:47;96181.09;;;9.82;100.00
75438;BME280;64015;49.392;15.582;2024-02-15T09:35:52;96201.25;;;10.03;100.00
75438;BME280;64015;49.392;15.582;2024-02-15T09:39:18;96177.19;;;9.57;100.00
75438;BME280;64015;49.392;15.582;2024-02-15T09:41:50;96191.28;;;9.73;100.00
75438;BME280;64015;49.392;15.582;2024-02-15T09:44:42;96190.06;;;9.54;100.00
75438;BME280;64015;49.392;15.582;2024-02-15T09:47:12;96197.84;;;9.70;100.00
75438;BME280;64015;49.392;15.582;2024-02-15T09:49:39;96192.66;;;9.81;100.00
75438;BME280;64015;49.392;15.582;2024-02-15T09:52:06;96192.69;;;9.86;100.00
75438;BME280;64015;49.392;15.582;2024-02-15T09:54:44;96202.78;;;9.62;100.00
75438;BME280;64015;49.392;15.582;2024-02-15T09:57:11;96221.75;;;9.91;100.00
75438;BME280;64015;49.392;15.582;2024-02-15T10:02:59;96203.69;;;9.72;100.00
75438;BME280;64015;49.392;15.582;2024-02-15T10:06:16;96204.47;;;9.73;100.00
75438;BME280;64015;49.392;15.582;2024-02-15T10:08:48;96207.94;;;9.79;100.00
75438;BME280;64015;49.392;15.582;2024-02-15T10:15:52;96201.63;;;9.80;100.00
75438;BME280;64015;49.392;15.582;2024-02-15T10:18:24;96219.44;;;9.99;100.00
75438;BME280;64015;49.392;15.582;2024-02-15T10:27:47;96192.97;;;10.21;100.00
75438;BME280;64015;49.392;15.582;2024-02-15T10:30:55;96196.03;;;10.08;100.00
75438;BME280;64015;49.392;15.582;2024-02-15T10:36:49;96208.16;;;9.72;100.00
75438;BME280;64015;49.392;15.582;2024-02-15T10:39:30;96198.53;;;9.93;100.00
75438;BME280;64015;49.392;15.582;2024-02-15T10:41:59;96190.53;;;9.78;100.00
75438;BME280;64015;49.392;15.582;2024-02-15T10:44:28;96195.72;;;9.67;100.00
75438;BME280;64015;49.392;15.582;2024-02-15T10:47:01;96210.56;;;9.79;100.00
75438;BME280;64015;49.392;15.582;2024-02-15T10:49:34;96208.19;;;9.77;100.00
75438;BME280;64015;49.392;15.582;2024-02-15T10:52:11;96223.03;;;9.88;100.00
75438;BME280;64015;49.392;15.582;2024-02-15T10:55:03;96203.38;;;9.69;100.00
75438;BME280;64015;49.392;15.582;2024-02-15T10:57:37;96209.09;;;9.93;100.00
75438;BME280;64015;49.392;15.582;2024-02-15T11:00:11;96201.19;;;9.93;100.00
75438;BME280;64015;49.392;15.582;2024-02-15T11:03:24;96192.06;;;10.05;100.00
75438;BME280;64015;49.392;15.582;2024-02-15T11:06:00;96185.59;;;10.18;100.00
75438;BME280;64015;49.392;15.582;2024-02-15T11:08:28;96185.13;;;10.26;100.00
75438;BME280;64015;49.392;15.582;2024-02-15T11:11:12;96190.72;;;10.35;100.00
75438;BME280;64015;49.392;15.582;2024-02-15T11:14:35;96210.22;;;10.39;100.00
75438;BME280;64015;49.392;15.582;2024-02-15T11:30:57;96170.84;;;10.22;100.00
75438;BME280;64015;49.392;15.582;2024-02-15T11:36:09;96183.16;;;10.54;100.00
75438;BME280;64015;49.392;15.582;2024-02-15T11:38:38;96170.03;;;10.64;100.00
75438;BME280;64015;49.392;15.582;2024-02-15T11:41:13;96186.75;;;10.90;100.00
75438;BME280;64015;49.392;15.582;2024-02-15T11:43:53;96174.50;;;10.63;100.00
75438;BME280;64015;49.392;15.582;2024-02-15T11:47:01;96155.78;;;10.70;100.00
75438;BME280;64015;49.392;15.582;2024-02-15T11:53:02;96163.66;;;10.55;100.00
75438;BME280;64015;49.392;15.582;2024-02-15T11:56:15;96164.56;;;10.80;100.00
75438;BME280;64015;49.392;15.582;2024-02-15T11:58:41;96174.34;;;10.90;100.00
75438;BME280;64015;49.392;15.582;2024-02-15T12:01:18;96171.47;;;10.92;100.00
75438;BME280;64015;49.392;15.582;2024-02-15T12:04:02;96159.28;;;10.85;100.00
75438;BME280;64015;49.392;15.582;2024-02-15T12:06:47;96166.44;;;10.95;100.00
75438;BME280;64015;49.392;15.582;2024-02-15T12:09:31;96140.56;;;10.87;100.00
75438;BME280;64015;49.392;15.582;2024-02-15T12:12:16;96157.22;;;10.93;100.00
75438;BME280;64015;49.392;15.582;2024-02-15T12:15:03;96155.59;;;10.81;100.00
75438;BME280;64015;49.392;15.582;2024-02-15T12:21:57;96144.91;;;11.29;100.00
75438;BME280;64015;49.392;15.582;2024-02-15T12:24:44;96139.06;;;11.27;100.00
75438;BME280;64015;49.392;15.582;2024-02-15T12:27:13;96137.50;;;11.36;100.00
75438;BME280;64015;49.392;15.582;2024-02-15T12:29:38;96150.97;;;11.44;100.00
75438;BME280;64015;49.392;15.582;2024-02-15T12:32:04;96149.13;;;11.40;100.00
75438;BME280;64015;49.392;15.582;2024-02-15T12:34:30;96141.19;;;11.35;100.00
75438;BME280;64015;49.392;15.582;2024-02-15T12:37:06;96125.63;;;11.38;100.00
75438;BME280;64015;49.392;15.582;2024-02-15T12:39:34;96145.94;;;11.33;100.00
75438;BME280;64015;49.392;15.582;2024-02-15T12:42:00;96124.06;;;11.47;100.00
75438;BME280;64015;49.392;15.582;2024-02-15T12:44:27;96125.09;;;11.97;100.00
75438;BME280;64015;49.392;15.582;2024-02-15T12:46:58;96112.38;;;12.14;100.00
75438;BME280;64015;49.392;15.582;2024-02-15T12:51:53;96133.50;;;13.04;100.00
75438;BME280;64015;49.392;15.582;2024-02-15T12:54:20;96118.13;;;13.01;100.00
75438;BME280;64015;49.392;15.582;2024-02-15T12:56:49;96132.06;;;12.67;100.00
75438;BME280;64015;49.392;15.582;2024-02-15T12:59:18;96119.41;;;12.59;100.00
75438;BME280;64015;49.392;15.582;2024-02-15T13:01:48;96109.44;;;12.31;100.00
75438;BME280;64015;49.392;15.582;2024-02-15T13:04:24;96116.66;;;11.85;100.00
75438;BME280;64015;49.392;15.582;2024-02-15T13:06:53;96112.16;;;11.65;100.00
75438;BME280;64015;49.392;15.582;2024-02-15T13:09:19;96120.63;;;11.57;100.00
75438;BME280;64015;49.392;15.582;2024-02-15T13:11:48;96117.97;;;11.37;100.00
75438;BME280;64015;49.392;15.582;2024-02-15T13:14:15;96128.00;;;11.65;100.00
75438;BME280;64015;49.392;15.582;2024-02-15T13:16:41;96108.94;;;11.07;100.00
75438;BME280;64015;49.392;15.582;2024-02-15T13:19:14;96119.25;;;11.09;100.00
75438;BME280;64015;49.392;15.582;2024-02-15T13:21:40;96106.00;;;10.99;100.00
75438;BME280;64015;49.392;15.582;2024-02-15T13:24:05;96101.47;;;10.74;100.00
75438;BME280;64015;49.392;15.582;2024-02-15T13:26:31;96112.34;;;10.93;100.00
75438;BME280;64015;49.392;15.582;2024-02-15T13:28:59;96110.72;;;10.81;100.00
75438;BME280;64015;49.392;15.582;2024-02-15T13:31:25;96096.72;;;10.71;100.00
75438;BME280;64015;49.392;15.582;2024-02-15T13:33:53;96112.91;;;11.10;100.00
75438;BME280;64015;49.392;15.582;2024-02-15T13:36:18;96109.22;;;11.31;100.00
75438;BME280;64015;49.392;15.582;2024-02-15T13:38:45;96104.75;;;11.27;100.00
75438;BME280;64015;49.392;15.582;2024-02-15T13:41:12;96114.28;;;11.48;100.00
75438;BME280;64015;49.392;15.582;2024-02-15T13:43:44;96100.78;;;11.49;100.00
75438;BME280;64015;49.392;15.582;2024-02-15T13:46:10;96105.75;;;12.27;100.00
75438;BME280;64015;49.392;15.582;2024-02-15T13:48:36;96108.44;;;12.86;100.00
75438;BME280;64015;49.392;15.582;2024-02-15T13:51:01;96089.59;;;12.93;100.00
75438;BME280;64015;49.392;15.582;2024-02-15T13:53:27;96089.63;;;12.83;99.57
75438;BME280;64015;49.392;15.582;2024-02-15T13:55:54;96090.78;;;12.61;100.00
75438;BME280;64015;49.392;15.582;2024-02-15T13:58:19;96105.53;;;12.08;100.00
75438;BME280;64015;49.392;15.582;2024-02-15T14:00:46;96101.03;;;12.04;100.00
75438;BME280;64015;49.392;15.582;2024-02-15T14:03:13;96112.97;;;11.81;100.00
75438;BME280;64015;49.392;15.582;2024-02-15T14:05:41;96097.88;;;11.51;100.00
75438;BME280;64015;49.392;15.582;2024-02-15T14:08:07;96091.53;;;11.52;100.00
75438;BME280;64015;49.392;15.582;2024-02-15T14:10:36;96099.72;;;11.60;100.00
75438;BME280;64015;49.392;15.582;2024-02-15T14:13:04;96112.16;;;11.60;100.00
75438;BME280;64015;49.392;15.582;2024-02-15T14:15:37;96114.28;;;11.58;100.00
75438;BME280;64015;49.392;15.582;2024-02-15T14:18:07;96102.63;;;11.34;100.00
75438;BME280;64015;49.392;15.582;2024-02-15T14:20:36;96099.72;;;11.50;100.00
75438;BME280;64015;49.392;15.582;2024-02-15T14:23:02;96104.47;;;11.43;100.00
75438;BME280;64015;49.392;15.582;2024-02-15T14:25:32;96111.63;;;11.63;100.00
75438;BME280;64015;49.392;15.582;2024-02-15T14:27:58;96091.56;;;11.47;100.00
75438;BME280;64015;49.392;15.582;2024-02-15T14:30:25;96091.53;;;11.72;100.00
75438;BME280;64015;49.392;15.582;2024-02-15T14:33:09;96097.88;;;11.91;100.00
75438;BME280;64015;49.392;15.582;2024-02-15T14:35:38;96101.06;;;11.93;100.00
75438;BME280;64015;49.392;15.582;2024-02-15T14:38:11;96092.06;;;12.05;100.00
75438;BME280;64015;49.392;15.582;2024-02-15T14:40:45;96079.88;;;11.99;100.00
75438;BME280;64015;49.392;15.582;2024-02-15T14:43:13;96103.09;;;12.27;100.00
75438;BME280;64015;49.392;15.582;2024-02-15T14:45:41;96094.59;;;12.40;100.00
75438;BME280;64015;49.392;15.582;2024-02-15T14:48:07;96099.63;;;12.96;100.00
75438;BME280;64015;49.392;15.582;2024-02-15T14:50:36;96091.69;;;13.40;99.05
75438;BME280;64015;49.392;15.582;2024-02-15T14:53:03;96094.66;;;13.33;96.12
75438;BME280;64015;49.392;15.582;2024-02-15T14:55:29;96099.28;;;13.52;95.19
75438;BME280;64015;49.392;15.582;2024-02-15T14:57:57;96102.75;;;13.47;96.01
75438;BME280;64015;49.392;15.582;2024-02-15T15:00:26;96095.66;;;13.42;96.96
75438;BME280;64015;49.392;15.582;2024-02-15T15:02:53;96096.81;;;13.26;95.71
75438;BME280;64015;49.392;15.582;2024-02-15T15:05:22;96081.09;;;12.96;97.35
75438;BME280;64015;49.392;15.582;2024-02-15T15:08:07;96088.88;;;12.77;99.38
75438;BME280;64015;49.392;15.582;2024-02-15T15:10:51;96099.78;;;12.60;100.00
75438;BME280;64015;49.392;15.582;2024-02-15T15:13:36;96080.00;;;12.48;100.00
75438;BME280;64015;49.392;15.582;2024-02-15T15:16:02;96096.19;;;12.41;100.00
75438;BME280;64015;49.392;15.582;2024-02-15T15:18:31;96099.16;;;12.19;100.00
75438;BME280;64015;49.392;15.582;2024-02-15T15:20:58;96097.34;;;12.05;100.00
75438;BME280;64015;49.392;15.582;2024-02-15T15:23:27;96087.31;;;11.86;100.00
75438;BME280;64015;49.392;15.582;2024-02-15T15:25:57;96094.72;;;11.79;100.00
75438;BME280;64015;49.392;15.582;2024-02-15T15:28:24;96110.56;;;11.89;100.00
75438;BME280;64015;49.392;15.582;2024-02-15T15:30:50;96093.13;;;11.93;100.00
75438;BME280;64015;49.392;15.582;2024-02-15T15:33:23;96088.91;;;11.82;100.00
75438;BME280;64015;49.392;15.582;2024-02-15T15:35:51;96088.91;;;11.82;100.00
75438;BME280;64015;49.392;15.582;2024-02-15T15:41:52;96093.13;;;11.78;100.00
75438;BME280;64015;49.392;15.582;2024-02-15T15:44:21;96089.41;;;11.69;100.00
75438;BME280;64015;49.392;15.582;2024-02-15T15:49:35;96089.41;;;11.69;100.00
75438;BME280;64015;49.392;15.582;2024-02-15T15:52:10;96097.88;;;11.56;100.00
75438;BME280;64015;49.392;15.582;2024-02-15T15:54:39;96090.22;;;11.29;100.00
75438;BME280;64015;49.392;15.582;2024-02-15T15:57:14;96097.31;;;11.13;100.00
75438;BME280;64015;49.392;15.582;2024-02-15T15:59:51;96080.41;;;10.89;100.00
75438;BME280;64015;49.392;15.582;2024-02-15T16:02:17;96093.31;;;10.80;100.00
75438;BME280;64015;49.392;15.582;2024-02-15T16:04:44;96082.72;;;10.65;100.00
75438;BME280;64015;49.392;15.582;2024-02-15T16:07:49;96111.44;;;10.62;100.00
75438;BME280;64015;49.392;15.582;2024-02-15T16:10:25;96093.94;;;10.35;100.00
75438;BME280;64015;49.392;15.582;2024-02-15T16:13:29;96083.81;;;10.17;100.00
75438;BME280;64015;49.392;15.582;2024-02-15T16:15:55;96085.34;;;10.08;100.00
75438;BME280;64015;49.392;15.582;2024-02-15T16:18:22;96094.22;;;9.97;100.00
75438;BME280;64015;49.392;15.582;2024-02-15T16:20:52;96095.69;;;9.78;100.00
75438;BME280;64015;49.392;15.582;2024-02-15T16:26:01;96095.13;;;9.39;100.00
75438;BME280;64015;49.392;15.582;2024-02-15T16:32:04;96092.88;;;9.20;100.00
75438;BME280;64015;49.392;15.582;2024-02-15T16:34:31;96104.66;;;9.13;100.00
75438;BME280;64015;49.392;15.582;2024-02-15T16:36:57;96107.41;;;9.01;100.00
75438;BME280;64015;49.392;15.582;2024-02-15T16:39:23;96107.16;;;8.97;100.00
75438;BME280;64015;49.392;15.582;2024-02-15T16:41:49;96110.22;;;8.89;100.00
75438;BME280;64015;49.392;15.582;2024-02-15T16:44:20;96112.53;;;8.86;100.00
75438;BME280;64015;49.392;15.582;2024-02-15T16:46:46;96111.63;;;8.75;100.00
75438;BME280;64015;49.392;15.582;2024-02-15T16:49:13;96108.41;;;8.68;100.00
75438;BME280;64015;49.392;15.582;2024-02-15T16:51:39;96114.38;;;8.64;100.00
75438;BME280;64015;49.392;15.582;2024-02-15T16:54:05;96120.44;;;8.64;100.00
75438;BME280;64015;49.392;15.582;2024-02-15T16:56:34;96119.28;;;8.55;100.00
75438;BME280;64015;49.392;15.582;2024-02-15T16:59:00;96117.75;;;8.37;100.00
75438;BME280;64015;49.392;15.582;2024-02-15T17:01:26;96119.53;;;8.32;100.00
75438;BME280;64015;49.392;15.582;2024-02-15T17:03:52;96122.56;;;8.23;100.00
75438;BME280;64015;49.392;15.582;2024-02-15T17:06:19;96134.13;;;8.22;100.00
75438;BME280;64015;49.392;15.582;2024-02-15T17:08:45;96116.53;;;8.06;100.00
75438;BME280;64015;49.392;15.582;2024-02-15T17:11:12;96132.78;;;8.03;100.00
75438;BME280;64015;49.392;15.582;2024-02-15T17:13:37;96129.56;;;7.96;100.00
75438;BME280;64015;49.392;15.582;2024-02-15T17:16:09;96132.81;;;7.86;100.00
75438;BME280;64015;49.392;15.582;2024-02-15T17:18:35;96128.91;;;7.72;100.00
75438;BME280;64015;49.392;15.582;2024-02-15T17:21:04;96137.25;;;7.69;100.00
75438;BME280;64015;49.392;15.582;2024-02-15T17:23:33;96130.59;;;7.62;100.00
75438;BME280;64015;49.392;15.582;2024-02-15T17:25:59;96125.75;;;7.54;100.00
75438;BME280;64015;49.392;15.582;2024-02-15T17:28:25;96147.31;;;7.56;100.00
75438;BME280;64015;49.392;15.582;2024-02-15T17:30:52;96144.91;;;7.54;100.00
75438;BME280;64015;49.392;15.582;2024-02-15T17:33:17;96128.53;;;7.30;100.00
75438;BME280;64015;49.392;15.582;2024-02-15T17:35:45;96137.91;;;7.26;100.00
75438;BME280;64015;49.392;15.582;2024-02-15T17:38:11;96150.63;;;7.34;100.00
75438;BME280;64015;49.392;15.582;2024-02-15T17:40:37;96135.84;;;7.28;100.00
75438;BME280;64015;49.392;15.582;2024-02-15T17:43:03;96163.53;;;7.53;100.00
75438;BME280;64015;49.392;15.582;2024-02-15T17:45:29;96157.75;;;7.51;100.00
75438;BME280;64015;49.392;15.582;2024-02-15T17:47:55;96160.66;;;7.54;100.00
75438;BME280;64015;49.392;15.582;2024-02-15T17:50:21;96168.00;;;7.69;100.00
75438;BME280;64015;49.392;15.582;2024-02-15T17:53:04;96145.88;;;7.65;100.00
75438;BME280;64015;49.392;15.582;2024-02-15T17:55:45;96157.09;;;7.77;100.00
75438;BME280;64015;49.392;15.582;2024-02-15T18:03:02;96167.34;;;7.95;100.00
75438;BME280;64015;49.392;15.582;2024-02-15T18:06:11;96175.16;;;7.90;100.00
75438;BME280;64015;49.392;15.582;2024-02-15T18:08:37;96168.47;;;7.82;100.00
75438;BME280;64015;49.392;15.582;2024-02-15T18:11:16;96157.16;;;7.82;100.00
75438;BME280;64015;49.392;15.582;2024-02-15T18:20:36;96156.59;;;7.80;100.00
75438;BME280;64015;49.392;15.582;2024-02-15T18:23:30;96174.06;;;7.86;100.00
75438;BME280;64015;49.392;15.582;2024-02-15T18:26:14;96161.00;;;7.74;100.00
75438;BME280;64015;49.392;15.582;2024-02-15T18:28:59;96170.13;;;7.88;100.00
75438;BME280;64015;49.392;15.582;2024-02-15T18:31:27;96168.28;;;7.89;100.00